sensor_id;sensor_type;location;lat;lon;timestamp;temperature;humidity
12655;DHT22;6392;44.644;11.448;2023-02-01T00:01:22;4.90;99.90
12655;DHT22;6392;44.644;11.448;2023-02-01T00:03:49;4.90;99.90
12655;DHT22;6392;44.644;11.448;2023-02-01T00:06:16;4.90;99.90
12655;DHT22;6392;44.644;11.448;2023-02-01T00:08:43;4.80;99.90
12655;DHT22;6392;44.644;11.448;2023-02-01T00:11:12;4.80;99.90
12655;DHT22;6392;44.644;11.448;2023-02-01T00:13:41;4.70;99.90
12655;DHT22;6392;44.644;11.448;2023-02-01T00:16:10;4.70;99.90
12655;DHT22;6392;44.644;11.448;2023-02-01T00:18:38;4.60;99.90
12655;DHT22;6392;44.644;11.448;2023-02-01T00:21:05;4.60;99.90
12655;DHT22;6392;44.644;11.448;2023-02-01T00:23:33;4.70;99.90
12655;DHT22;6392;44.644;11.448;2023-02-01T00:26:01;4.70;99.90
12655;DHT22;6392;44.644;11.448;2023-02-01T00:28:29;4.70;99.90
12655;DHT22;6392;44.644;11.448;2023-02-01T00:30:57;4.70;99.90
12655;DHT22;6392;44.644;11.448;2023-02-01T00:33:24;4.70;99.90
12655;DHT22;6392;44.644;11.448;2023-02-01T00:35:55;4.80;99.90
12655;DHT22;6392;44.644;11.448;2023-02-01T00:38:23;4.80;99.90
12655;DHT22;6392;44.644;11.448;2023-02-01T00:40:50;4.80;99.90
12655;DHT22;6392;44.644;11.448;2023-02-01T00:43:17;4.80;99.90
12655;DHT22;6392;44.644;11.448;2023-02-01T00:45:46;4.80;99.90
12655;DHT22;6392;44.644;11.448;2023-02-01T00:48:13;4.80;99.90
12655;DHT22;6392;44.644;11.448;2023-02-01T00:50:41;4.80;99.90
12655;DHT22;6392;44.644;11.448;2023-02-01T00:53:09;4.80;99.90
12655;DHT22;6392;44.644;11.448;2023-02-01T00:55:36;4.90;99.90
12655;DHT22;6392;44.644;11.448;2023-02-01T00:58:03;4.90;99.90
12655;DHT22;6392;44.644;11.448;2023-02-01T01:00:31;4.90;99.90
12655;DHT22;6392;44.644;11.448;2023-02-01T01:03:03;4.60;99.90
12655;DHT22;6392;44.644;11.448;2023-02-01T01:05:44;4.30;99.90
12655;DHT22;6392;44.644;11.448;2023-02-01T01:08:12;4.10;99.90
12655;DHT22;6392;44.644;11.448;2023-02-01T01:10:42;3.90;99.90
12655;DHT22;6392;44.644;11.448;2023-02-01T01:13:09;3.80;99.90
12655;DHT22;6392;44.644;11.448;2023-02-01T01:15:37;3.80;99.90
12655;DHT22;6392;44.644;11.448;2023-02-01T01:18:06;3.80;99.90
12655;DHT22;6392;44.644;11.448;2023-02-01T01:20:34;3.90;99.90
12655;DHT22;6392;44.644;11.448;2023-02-01T01:23:02;3.90;99.90
12655;DHT22;6392;44.644;11.448;2023-02-01T01:25:29;3.90;99.90
12655;DHT22;6392;44.644;11.448;2023-02-01T01:27:56;3.90;99.90
12655;DHT22;6392;44.644;11.448;2023-02-01T01:30:24;3.80;99.90
12655;DHT22;6392;44.644;11.448;2023-02-01T01:32:52;3.70;99.90
12655;DHT22;6392;44.644;11.448;2023-02-01T01:35:20;3.60;99.90
12655;DHT22;6392;44.644;11.448;2023-02-01T01:37:47;3.50;99.90
12655;DHT22;6392;44.644;11.448;2023-02-01T01:40:15;3.40;99.90
12655;DHT22;6392;44.644;11.448;2023-02-01T01:42:43;3.30;99.90
12655;DHT22;6392;44.644;11.448;2023-02-01T01:45:22;3.30;99.90
12655;DHT22;6392;44.644;11.448;2023-02-01T01:47:52;3.20;99.90
12655;DHT22;6392;44.644;11.448;2023-02-01T01:50:24;3.10;99.90
12655;DHT22;6392;44.644;11.448;2023-02-01T01:52:53;3.20;99.90
12655;DHT22;6392;44.644;11.448;2023-02-01T01:55:22;3.40;99.90
12655;DHT22;6392;44.644;11.448;2023-02-01T01:57:55;3.40;99.90
12655;DHT22;6392;44.644;11.448;2023-02-01T02:00:24;3.40;99.90
12655;DHT22;6392;44.644;11.448;2023-02-01T02:02:56;3.40;99.90
12655;DHT22;6392;44.644;11.448;2023-02-01T02:05:26;3.50;99.90
12655;DHT22;6392;44.644;11.448;2023-02-01T02:07:58;3.50;99.90
12655;DHT22;6392;44.644;11.448;2023-02-01T02:10:25;3.50;99.90
12655;DHT22;6392;44.644;11.448;2023-02-01T02:13:13;3.40;99.90
12655;DHT22;6392;44.644;11.448;2023-02-01T02:15:44;3.40;99.90
12655;DHT22;6392;44.644;11.448;2023-02-01T02:18:17;3.30;99.90
12655;DHT22;6392;44.644;11.448;2023-02-01T02:21:12;3.10;99.90
12655;DHT22;6392;44.644;11.448;2023-02-01T02:27:02;2.80;99.90
12655;DHT22;6392;44.644;11.448;2023-02-01T02:29:50;2.70;99.90
12655;DHT22;6392;44.644;11.448;2023-02-01T02:35:29;2.50;99.90
12655;DHT22;6392;44.644;11.448;2023-02-01T02:38:05;2.40;99.90
12655;DHT22;6392;44.644;11.448;2023-02-01T02:40:41;2.30;99.90
12655;DHT22;6392;44.644;11.448;2023-02-01T02:43:15;2.30;99.90
12655;DHT22;6392;44.644;11.448;2023-02-01T02:46:06;2.30;99.90
12655;DHT22;6392;44.644;11.448;2023-02-01T02:48:54;2.30;99.90
12655;DHT22;6392;44.644;11.448;2023-02-01T02:51:30;2.20;99.90
12655;DHT22;6392;44.644;11.448;2023-02-01T02:54:19;2.10;99.90
12655;DHT22;6392;44.644;11.448;2023-02-01T02:57:20;2.10;99.90
12655;DHT22;6392;44.644;11.448;2023-02-01T03:00:09;2.10;99.90
12655;DHT22;6392;44.644;11.448;2023-02-01T03:02:55;2.00;99.90
12655;DHT22;6392;44.644;11.448;2023-02-01T03:05:42;1.90;99.90
12655;DHT22;6392;44.644;11.448;2023-02-01T03:08:13;1.90;99.90
12655;DHT22;6392;44.644;11.448;2023-02-01T03:10:59;1.90;99.90
12655;DHT22;6392;44.644;11.448;2023-02-01T03:13:35;1.90;99.90
12655;DHT22;6392;44.644;11.448;2023-02-01T03:16:06;2.00;99.90
12655;DHT22;6392;44.644;11.448;2023-02-01T03:18:36;2.00;99.90
12655;DHT22;6392;44.644;11.448;2023-02-01T03:21:10;2.10;99.90
12655;DHT22;6392;44.644;11.448;2023-02-01T03:23:41;2.10;99.90
12655;DHT22;6392;44.644;11.448;2023-02-01T03:26:13;2.10;99.90
12655;DHT22;6392;44.644;11.448;2023-02-01T03:28:44;2.20;99.90
12655;DHT22;6392;44.644;11.448;2023-02-01T03:31:12;2.20;99.90
12655;DHT22;6392;44.644;11.448;2023-02-01T03:33:40;2.20;99.90
12655;DHT22;6392;44.644;11.448;2023-02-01T03:36:17;2.20;99.90
12655;DHT22;6392;44.644;11.448;2023-02-01T03:38:50;2.20;99.90
12655;DHT22;6392;44.644;11.448;2023-02-01T03:41:26;2.30;99.90
12655;DHT22;6392;44.644;11.448;2023-02-01T03:43:55;2.30;99.90
12655;DHT22;6392;44.644;11.448;2023-02-01T03:46:29;2.30;99.90
12655;DHT22;6392;44.644;11.448;2023-02-01T03:49:02;2.30;99.90
12655;DHT22;6392;44.644;11.448;2023-02-01T03:51:30;2.30;99.90
12655;DHT22;6392;44.644;11.448;2023-02-01T03:53:59;2.40;99.90
12655;DHT22;6392;44.644;11.448;2023-02-01T03:56:29;2.40;99.90
12655;DHT22;6392;44.644;11.448;2023-02-01T03:58:58;2.40;99.90
12655;DHT22;6392;44.644;11.448;2023-02-01T04:01:26;2.40;99.90
12655;DHT22;6392;44.644;11.448;2023-02-01T04:03:54;2.30;99.90
12655;DHT22;6392;44.644;11.448;2023-02-01T04:06:21;2.30;99.90
12655;DHT22;6392;44.644;11.448;2023-02-01T04:08:48;2.30;99.90
12655;DHT22;6392;44.644;11.448;2023-02-01T04:11:17;2.20;99.90
12655;DHT22;6392;44.644;11.448;2023-02-01T04:13:45;2.20;99.90
12655;DHT22;6392;44.644;11.448;2023-02-01T04:16:12;2.30;99.90
12655;DHT22;6392;44.644;11.448;2023-02-01T04:18:39;2.30;99.90
12655;DHT22;6392;44.644;11.448;2023-02-01T04:21:06;2.40;99.90
12655;DHT22;6392;44.644;11.448;2023-02-01T04:23:33;2.40;99.90
12655;DHT22;6392;44.644;11.448;2023-02-01T04:26:03;2.40;99.90
12655;DHT22;6392;44.644;11.448;2023-02-01T04:28:31;2.40;99.90
12655;DHT22;6392;44.644;11.448;2023-02-01T04:30:58;2.40;99.90
12655;DHT22;6392;44.644;11.448;2023-02-01T04:33:26;2.30;99.90
12655;DHT22;6392;44.644;11.448;2023-02-01T04:35:53;2.30;99.90
12655;DHT22;6392;44.644;11.448;2023-02-01T04:38:20;2.30;99.90
12655;DHT22;6392;44.644;11.448;2023-02-01T04:40:47;2.30;99.90
12655;DHT22;6392;44.644;11.448;2023-02-01T04:43:15;2.30;99.90
12655;DHT22;6392;44.644;11.448;2023-02-01T04:45:47;2.30;99.90
12655;DHT22;6392;44.644;11.448;2023-02-01T04:48:14;2.30;99.90
12655;DHT22;6392;44.644;11.448;2023-02-01T04:50:42;2.30;99.90
12655;DHT22;6392;44.644;11.448;2023-02-01T04:53:10;2.40;99.90
12655;DHT22;6392;44.644;11.448;2023-02-01T04:55:37;2.40;99.90
12655;DHT22;6392;44.644;11.448;2023-02-01T04:58:04;2.50;99.90
12655;DHT22;6392;44.644;11.448;2023-02-01T05:00:31;2.60;99.90
12655;DHT22;6392;44.644;11.448;2023-02-01T05:03:00;2.70;99.90
12655;DHT22;6392;44.644;11.448;2023-02-01T05:05:27;2.80;99.90
12655;DHT22;6392;44.644;11.448;2023-02-01T05:07:54;2.90;99.90
12655;DHT22;6392;44.644;11.448;2023-02-01T05:10:22;2.90;99.90
12655;DHT22;6392;44.644;11.448;2023-02-01T05:12:50;2.90;99.90
12655;DHT22;6392;44.644;11.448;2023-02-01T05:15:34;2.90;99.90
12655;DHT22;6392;44.644;11.448;2023-02-01T05:18:03;2.80;99.90
12655;DHT22;6392;44.644;11.448;2023-02-01T05:20:30;2.80;99.90
12655;DHT22;6392;44.644;11.448;2023-02-01T05:22:57;2.70;99.90
12655;DHT22;6392;44.644;11.448;2023-02-01T05:25:24;2.70;99.90
12655;DHT22;6392;44.644;11.448;2023-02-01T05:27:51;2.60;99.90
12655;DHT22;6392;44.644;11.448;2023-02-01T05:30:18;2.70;99.90
12655;DHT22;6392;44.644;11.448;2023-02-01T05:32:45;2.70;99.90
12655;DHT22;6392;44.644;11.448;2023-02-01T05:35:13;2.70;99.90
12655;DHT22;6392;44.644;11.448;2023-02-01T05:37:40;2.60;99.90
12655;DHT22;6392;44.644;11.448;2023-02-01T05:40:08;2.50;99.90
12655;DHT22;6392;44.644;11.448;2023-02-01T05:42:35;2.40;99.90
12655;DHT22;6392;44.644;11.448;2023-02-01T05:45:03;2.40;99.90
12655;DHT22;6392;44.644;11.448;2023-02-01T05:47:30;2.30;99.90
12655;DHT22;6392;44.644;11.448;2023-02-01T05:49:57;2.30;99.90
12655;DHT22;6392;44.644;11.448;2023-02-01T05:52:26;2.40;99.90
12655;DHT22;6392;44.644;11.448;2023-02-01T05:54:53;2.50;99.90
12655;DHT22;6392;44.644;11.448;2023-02-01T05:57:20;2.70;99.90
12655;DHT22;6392;44.644;11.448;2023-02-01T05:59:47;2.60;99.90
12655;DHT22;6392;44.644;11.448;2023-02-01T06:02:14;2.60;99.90
12655;DHT22;6392;44.644;11.448;2023-02-01T06:04:41;2.60;99.90
12655;DHT22;6392;44.644;11.448;2023-02-01T06:07:09;2.60;99.90
12655;DHT22;6392;44.644;11.448;2023-02-01T06:09:37;2.70;99.90
12655;DHT22;6392;44.644;11.448;2023-02-01T06:12:05;2.70;99.90
12655;DHT22;6392;44.644;11.448;2023-02-01T06:14:32;2.70;99.90
12655;DHT22;6392;44.644;11.448;2023-02-01T06:16:59;2.70;99.90
12655;DHT22;6392;44.644;11.448;2023-02-01T06:19:26;2.70;99.90
12655;DHT22;6392;44.644;11.448;2023-02-01T06:21:53;2.80;99.90
12655;DHT22;6392;44.644;11.448;2023-02-01T06:24:20;2.80;99.90
12655;DHT22;6392;44.644;11.448;2023-02-01T06:26:49;2.80;99.90
12655;DHT22;6392;44.644;11.448;2023-02-01T06:29:16;2.80;99.90
12655;DHT22;6392;44.644;11.448;2023-02-01T06:31:43;2.80;99.90
12655;DHT22;6392;44.644;11.448;2023-02-01T06:34:10;2.80;99.90
12655;DHT22;6392;44.644;11.448;2023-02-01T06:36:37;2.80;99.90
12655;DHT22;6392;44.644;11.448;2023-02-01T06:39:04;2.80;99.90
12655;DHT22;6392;44.644;11.448;2023-02-01T06:41:31;2.80;99.90
12655;DHT22;6392;44.644;11.448;2023-02-01T06:44:01;2.70;99.90
12655;DHT22;6392;44.644;11.448;2023-02-01T06:46:28;2.80;99.90
12655;DHT22;6392;44.644;11.448;2023-02-01T06:48:55;2.60;99.90
12655;DHT22;6392;44.644;11.448;2023-02-01T06:51:24;2.50;99.90
12655;DHT22;6392;44.644;11.448;2023-02-01T06:53:51;2.40;99.90
12655;DHT22;6392;44.644;11.448;2023-02-01T06:56:19;2.40;99.90
12655;DHT22;6392;44.644;11.448;2023-02-01T06:58:46;2.50;99.90
12655;DHT22;6392;44.644;11.448;2023-02-01T07:01:15;2.50;99.90
12655;DHT22;6392;44.644;11.448;2023-02-01T07:03:42;2.60;99.90
12655;DHT22;6392;44.644;11.448;2023-02-01T07:06:13;2.80;99.90
12655;DHT22;6392;44.644;11.448;2023-02-01T07:08:40;3.00;99.90
12655;DHT22;6392;44.644;11.448;2023-02-01T07:11:09;3.10;99.90
12655;DHT22;6392;44.644;11.448;2023-02-01T07:13:36;3.00;99.90
12655;DHT22;6392;44.644;11.448;2023-02-01T07:16:06;2.90;99.90
12655;DHT22;6392;44.644;11.448;2023-02-01T07:18:35;2.70;99.90
12655;DHT22;6392;44.644;11.448;2023-02-01T07:21:02;2.50;99.90
12655;DHT22;6392;44.644;11.448;2023-02-01T07:23:29;2.40;99.90
12655;DHT22;6392;44.644;11.448;2023-02-01T07:25:56;2.50;99.90
12655;DHT22;6392;44.644;11.448;2023-02-01T07:28:24;2.50;99.90
12655;DHT22;6392;44.644;11.448;2023-02-01T07:30:51;2.60;99.90
12655;DHT22;6392;44.644;11.448;2023-02-01T07:33:20;2.60;99.90
12655;DHT22;6392;44.644;11.448;2023-02-01T07:35:49;2.70;99.90
12655;DHT22;6392;44.644;11.448;2023-02-01T07:38:17;2.70;99.90
12655;DHT22;6392;44.644;11.448;2023-02-01T07:40:45;2.70;99.90
12655;DHT22;6392;44.644;11.448;2023-02-01T07:43:12;2.80;99.90
12655;DHT22;6392;44.644;11.448;2023-02-01T07:45:39;2.80;99.90
12655;DHT22;6392;44.644;11.448;2023-02-01T07:48:06;2.90;99.90
12655;DHT22;6392;44.644;11.448;2023-02-01T07:50:33;2.90;99.90
12655;DHT22;6392;44.644;11.448;2023-02-01T07:53:01;2.90;99.90
12655;DHT22;6392;44.644;11.448;2023-02-01T07:55:28;2.90;99.90
12655;DHT22;6392;44.644;11.448;2023-02-01T07:57:58;3.00;99.90
12655;DHT22;6392;44.644;11.448;2023-02-01T08:00:25;3.00;99.90
12655;DHT22;6392;44.644;11.448;2023-02-01T08:03:10;3.10;99.90
12655;DHT22;6392;44.644;11.448;2023-02-01T08:05:37;3.10;99.90
12655;DHT22;6392;44.644;11.448;2023-02-01T08:08:06;3.10;99.90
12655;DHT22;6392;44.644;11.448;2023-02-01T08:10:33;3.20;99.90
12655;DHT22;6392;44.644;11.448;2023-02-01T08:13:02;3.20;99.90
12655;DHT22;6392;44.644;11.448;2023-02-01T08:15:29;3.30;99.90
12655;DHT22;6392;44.644;11.448;2023-02-01T08:17:56;3.30;99.90
12655;DHT22;6392;44.644;11.448;2023-02-01T08:20:24;3.40;99.90
12655;DHT22;6392;44.644;11.448;2023-02-01T08:22:52;3.50;99.90
12655;DHT22;6392;44.644;11.448;2023-02-01T08:25:21;3.50;99.90
12655;DHT22;6392;44.644;11.448;2023-02-01T08:27:48;3.60;99.90
12655;DHT22;6392;44.644;11.448;2023-02-01T08:30:16;3.60;99.90
12655;DHT22;6392;44.644;11.448;2023-02-01T08:32:43;3.70;99.90
12655;DHT22;6392;44.644;11.448;2023-02-01T08:35:10;3.80;99.90
12655;DHT22;6392;44.644;11.448;2023-02-01T08:37:37;3.80;99.90
12655;DHT22;6392;44.644;11.448;2023-02-01T08:40:05;3.90;99.90
12655;DHT22;6392;44.644;11.448;2023-02-01T08:42:34;3.90;99.90
12655;DHT22;6392;44.644;11.448;2023-02-01T08:45:22;3.90;99.90
12655;DHT22;6392;44.644;11.448;2023-02-01T08:47:50;4.10;99.90
12655;DHT22;6392;44.644;11.448;2023-02-01T08:50:17;4.10;99.90
12655;DHT22;6392;44.644;11.448;2023-02-01T08:52:45;4.20;99.90
12655;DHT22;6392;44.644;11.448;2023-02-01T08:55:13;4.30;99.90
12655;DHT22;6392;44.644;11.448;2023-02-01T08:57:42;4.30;99.90
12655;DHT22;6392;44.644;11.448;2023-02-01T09:00:13;4.30;99.90
12655;DHT22;6392;44.644;11.448;2023-02-01T09:02:41;4.30;99.90
12655;DHT22;6392;44.644;11.448;2023-02-01T09:05:08;4.30;99.90
12655;DHT22;6392;44.644;11.448;2023-02-01T09:07:36;4.30;99.90
12655;DHT22;6392;44.644;11.448;2023-02-01T09:10:03;4.40;99.90
12655;DHT22;6392;44.644;11.448;2023-02-01T09:12:31;4.40;99.90
12655;DHT22;6392;44.644;11.448;2023-02-01T09:15:00;4.50;99.90
12655;DHT22;6392;44.644;11.448;2023-02-01T09:17:28;4.60;99.90
12655;DHT22;6392;44.644;11.448;2023-02-01T09:19:55;4.70;99.90
12655;DHT22;6392;44.644;11.448;2023-02-01T09:22:22;4.80;99.90
12655;DHT22;6392;44.644;11.448;2023-02-01T09:24:49;4.90;99.90
12655;DHT22;6392;44.644;11.448;2023-02-01T09:27:16;4.90;99.90
12655;DHT22;6392;44.644;11.448;2023-02-01T09:29:43;5.00;99.90
12655;DHT22;6392;44.644;11.448;2023-02-01T09:32:11;5.00;99.90
12655;DHT22;6392;44.644;11.448;2023-02-01T09:34:38;5.10;99.90
12655;DHT22;6392;44.644;11.448;2023-02-01T09:37:05;5.10;99.90
12655;DHT22;6392;44.644;11.448;2023-02-01T09:39:32;5.20;99.90
12655;DHT22;6392;44.644;11.448;2023-02-01T09:42:16;5.30;99.90
12655;DHT22;6392;44.644;11.448;2023-02-01T09:45:06;5.30;99.90
12655;DHT22;6392;44.644;11.448;2023-02-01T09:47:44;5.40;99.90
12655;DHT22;6392;44.644;11.448;2023-02-01T09:50:14;5.50;99.90
12655;DHT22;6392;44.644;11.448;2023-02-01T09:52:51;5.50;99.90
12655;DHT22;6392;44.644;11.448;2023-02-01T09:55:24;5.60;99.90
12655;DHT22;6392;44.644;11.448;2023-02-01T09:57:56;5.60;99.90
12655;DHT22;6392;44.644;11.448;2023-02-01T10:00:27;5.70;99.90
12655;DHT22;6392;44.644;11.448;2023-02-01T10:02:57;5.80;99.90
12655;DHT22;6392;44.644;11.448;2023-02-01T10:05:38;5.90;99.90
12655;DHT22;6392;44.644;11.448;2023-02-01T10:08:16;5.90;99.90
12655;DHT22;6392;44.644;11.448;2023-02-01T10:10:48;6.00;99.90
12655;DHT22;6392;44.644;11.448;2023-02-01T10:13:34;6.10;99.90
12655;DHT22;6392;44.644;11.448;2023-02-01T10:16:16;6.10;99.90
12655;DHT22;6392;44.644;11.448;2023-02-01T10:19:01;6.20;99.90
12655;DHT22;6392;44.644;11.448;2023-02-01T10:21:40;6.30;99.90
12655;DHT22;6392;44.644;11.448;2023-02-01T10:24:20;6.30;99.90
12655;DHT22;6392;44.644;11.448;2023-02-01T10:26:54;6.30;99.90
12655;DHT22;6392;44.644;11.448;2023-02-01T10:29:26;6.30;99.90
12655;DHT22;6392;44.644;11.448;2023-02-01T10:31:54;6.40;99.90
12655;DHT22;6392;44.644;11.448;2023-02-01T10:34:26;6.50;99.90
12655;DHT22;6392;44.644;11.448;2023-02-01T10:36:55;6.60;99.90
12655;DHT22;6392;44.644;11.448;2023-02-01T10:39:23;6.70;99.90
12655;DHT22;6392;44.644;11.448;2023-02-01T10:41:50;6.80;99.90
12655;DHT22;6392;44.644;11.448;2023-02-01T10:44:20;6.80;99.90
12655;DHT22;6392;44.644;11.448;2023-02-01T10:46:48;6.90;99.90
12655;DHT22;6392;44.644;11.448;2023-02-01T10:49:18;7.00;99.90
12655;DHT22;6392;44.644;11.448;2023-02-01T10:51:51;7.10;99.90
12655;DHT22;6392;44.644;11.448;2023-02-01T10:54:20;7.10;99.90
12655;DHT22;6392;44.644;11.448;2023-02-01T10:56:48;7.20;99.90
12655;DHT22;6392;44.644;11.448;2023-02-01T10:59:17;7.30;99.90
12655;DHT22;6392;44.644;11.448;2023-02-01T11:01:46;7.30;99.90
12655;DHT22;6392;44.644;11.448;2023-02-01T11:04:14;7.40;99.90
12655;DHT22;6392;44.644;11.448;2023-02-01T11:06:44;7.40;99.90
12655;DHT22;6392;44.644;11.448;2023-02-01T11:09:18;7.60;99.90
12655;DHT22;6392;44.644;11.448;2023-02-01T11:11:56;7.60;99.90
12655;DHT22;6392;44.644;11.448;2023-02-01T11:14:33;7.70;99.90
12655;DHT22;6392;44.644;11.448;2023-02-01T11:17:03;7.90;99.90
12655;DHT22;6392;44.644;11.448;2023-02-01T11:19:37;7.90;99.90
12655;DHT22;6392;44.644;11.448;2023-02-01T11:22:06;8.00;99.90
12655;DHT22;6392;44.644;11.448;2023-02-01T11:24:36;8.00;99.90
12655;DHT22;6392;44.644;11.448;2023-02-01T11:27:13;8.10;99.90
12655;DHT22;6392;44.644;11.448;2023-02-01T11:29:43;8.20;99.90
12655;DHT22;6392;44.644;11.448;2023-02-01T11:32:13;8.30;99.90
12655;DHT22;6392;44.644;11.448;2023-02-01T11:34:43;8.40;99.90
12655;DHT22;6392;44.644;11.448;2023-02-01T11:37:16;8.50;99.90
12655;DHT22;6392;44.644;11.448;2023-02-01T11:39:53;8.60;99.90
12655;DHT22;6392;44.644;11.448;2023-02-01T11:42:21;8.70;99.90
12655;DHT22;6392;44.644;11.448;2023-02-01T11:44:49;8.80;99.90
12655;DHT22;6392;44.644;11.448;2023-02-01T11:47:22;8.90;99.90
12655;DHT22;6392;44.644;11.448;2023-02-01T11:49:51;9.00;99.90
12655;DHT22;6392;44.644;11.448;2023-02-01T11:52:37;9.00;99.90
12655;DHT22;6392;44.644;11.448;2023-02-01T11:55:34;9.10;99.90
12655;DHT22;6392;44.644;11.448;2023-02-01T12:01:08;9.30;99.90
12655;DHT22;6392;44.644;11.448;2023-02-01T12:04:00;9.40;99.90
12655;DHT22;6392;44.644;11.448;2023-02-01T12:06:40;9.50;99.90
12655;DHT22;6392;44.644;11.448;2023-02-01T12:09:32;9.60;99.90
12655;DHT22;6392;44.644;11.448;2023-02-01T12:12:11;9.70;99.90
12655;DHT22;6392;44.644;11.448;2023-02-01T12:14:55;9.70;99.90
12655;DHT22;6392;44.644;11.448;2023-02-01T12:18:01;9.80;99.90
12655;DHT22;6392;44.644;11.448;2023-02-01T12:20:55;9.90;99.90
12655;DHT22;6392;44.644;11.448;2023-02-01T12:23:35;9.90;99.90
12655;DHT22;6392;44.644;11.448;2023-02-01T12:26:31;10.00;99.90
12655;DHT22;6392;44.644;11.448;2023-02-01T12:29:20;10.10;99.90
12655;DHT22;6392;44.644;11.448;2023-02-01T12:32:16;10.10;99.90
12655;DHT22;6392;44.644;11.448;2023-02-01T12:34:59;10.20;99.90
12655;DHT22;6392;44.644;11.448;2023-02-01T12:37:44;10.30;99.90
12655;DHT22;6392;44.644;11.448;2023-02-01T12:40:22;10.30;99.90
12655;DHT22;6392;44.644;11.448;2023-02-01T12:42:56;10.40;99.90
12655;DHT22;6392;44.644;11.448;2023-02-01T12:45:30;10.40;99.90
12655;DHT22;6392;44.644;11.448;2023-02-01T12:48:13;10.50;99.90
12655;DHT22;6392;44.644;11.448;2023-02-01T12:50:50;10.70;99.90
12655;DHT22;6392;44.644;11.448;2023-02-01T12:53:22;10.80;99.90
12655;DHT22;6392;44.644;11.448;2023-02-01T12:55:54;11.00;99.90
12655;DHT22;6392;44.644;11.448;2023-02-01T12:58:26;11.00;99.90
12655;DHT22;6392;44.644;11.448;2023-02-01T13:00:59;11.10;99.90
12655;DHT22;6392;44.644;11.448;2023-02-01T13:03:34;11.20;99.90
12655;DHT22;6392;44.644;11.448;2023-02-01T13:06:07;11.40;99.90
12655;DHT22;6392;44.644;11.448;2023-02-01T13:08:41;11.40;99.90
12655;DHT22;6392;44.644;11.448;2023-02-01T13:11:12;11.40;99.90
12655;DHT22;6392;44.644;11.448;2023-02-01T13:13:47;11.60;99.90
12655;DHT22;6392;44.644;11.448;2023-02-01T13:16:20;11.70;99.90
12655;DHT22;6392;44.644;11.448;2023-02-01T13:18:57;11.90;99.90
12655;DHT22;6392;44.644;11.448;2023-02-01T13:21:31;12.10;99.90
12655;DHT22;6392;44.644;11.448;2023-02-01T13:23:58;12.10;99.90
12655;DHT22;6392;44.644;11.448;2023-02-01T13:26:25;12.20;99.90
12655;DHT22;6392;44.644;11.448;2023-02-01T13:28:56;12.30;99.90
12655;DHT22;6392;44.644;11.448;2023-02-01T13:31:51;12.30;99.90
12655;DHT22;6392;44.644;11.448;2023-02-01T13:35:03;12.40;99.90
12655;DHT22;6392;44.644;11.448;2023-02-01T13:37:48;12.40;99.90
12655;DHT22;6392;44.644;11.448;2023-02-01T13:40:28;12.50;99.90
12655;DHT22;6392;44.644;11.448;2023-02-01T13:42:59;12.60;99.90
12655;DHT22;6392;44.644;11.448;2023-02-01T13:45:30;12.70;99.90
12655;DHT22;6392;44.644;11.448;2023-02-01T13:48:03;12.80;99.90
12655;DHT22;6392;44.644;11.448;2023-02-01T13:50:32;12.90;99.90
12655;DHT22;6392;44.644;11.448;2023-02-01T13:53:11;13.00;99.90
12655;DHT22;6392;44.644;11.448;2023-02-01T13:55:41;13.10;99.90
12655;DHT22;6392;44.644;11.448;2023-02-01T13:58:18;13.10;99.90
12655;DHT22;6392;44.644;11.448;2023-02-01T14:00:47;13.20;99.90
12655;DHT22;6392;44.644;11.448;2023-02-01T14:03:22;13.30;99.90
12655;DHT22;6392;44.644;11.448;2023-02-01T14:06:14;13.40;99.90
12655;DHT22;6392;44.644;11.448;2023-02-01T14:08:45;13.50;99.90
12655;DHT22;6392;44.644;11.448;2023-02-01T14:11:46;13.50;99.90
12655;DHT22;6392;44.644;11.448;2023-02-01T14:14:50;13.50;99.90
12655;DHT22;6392;44.644;11.448;2023-02-01T14:17:35;13.50;99.90
12655;DHT22;6392;44.644;11.448;2023-02-01T14:23:29;13.40;99.90
12655;DHT22;6392;44.644;11.448;2023-02-01T14:26:16;13.30;99.90
12655;DHT22;6392;44.644;11.448;2023-02-01T14:28:58;13.30;99.90
12655;DHT22;6392;44.644;11.448;2023-02-01T14:31:39;13.30;99.90
12655;DHT22;6392;44.644;11.448;2023-02-01T14:34:17;13.30;99.90
12655;DHT22;6392;44.644;11.448;2023-02-01T14:36:50;13.30;99.90
12655;DHT22;6392;44.644;11.448;2023-02-01T14:42:19;13.30;99.90
12655;DHT22;6392;44.644;11.448;2023-02-01T14:44:48;13.20;99.90
12655;DHT22;6392;44.644;11.448;2023-02-01T14:47:31;13.30;99.90
12655;DHT22;6392;44.644;11.448;2023-02-01T14:53:18;13.20;99.90
12655;DHT22;6392;44.644;11.448;2023-02-01T14:55:50;13.30;99.90
12655;DHT22;6392;44.644;11.448;2023-02-01T14:58:32;13.30;99.90
12655;DHT22;6392;44.644;11.448;2023-02-01T15:01:01;13.20;99.90
12655;DHT22;6392;44.644;11.448;2023-02-01T15:03:41;13.10;99.90
12655;DHT22;6392;44.644;11.448;2023-02-01T15:06:22;13.10;99.90
12655;DHT22;6392;44.644;11.448;2023-02-01T15:08:53;13.10;99.90
12655;DHT22;6392;44.644;11.448;2023-02-01T15:11:23;13.10;99.90
12655;DHT22;6392;44.644;11.448;2023-02-01T15:13:52;13.20;99.90
12655;DHT22;6392;44.644;11.448;2023-02-01T15:16:22;13.30;99.90
12655;DHT22;6392;44.644;11.448;2023-02-01T15:18:50;13.30;99.90
12655;DHT22;6392;44.644;11.448;2023-02-01T15:21:19;13.30;99.90
12655;DHT22;6392;44.644;11.448;2023-02-01T15:23:46;13.40;99.90
12655;DHT22;6392;44.644;11.448;2023-02-01T15:26:27;13.30;99.90
12655;DHT22;6392;44.644;11.448;2023-02-01T15:28:56;13.30;99.90
12655;DHT22;6392;44.644;11.448;2023-02-01T15:31:37;13.20;99.90
12655;DHT22;6392;44.644;11.448;2023-02-01T15:34:06;13.00;99.90
12655;DHT22;6392;44.644;11.448;2023-02-01T15:36:33;12.80;99.90
12655;DHT22;6392;44.644;11.448;2023-02-01T15:39:14;12.70;99.90
12655;DHT22;6392;44.644;11.448;2023-02-01T15:41:47;12.60;99.90
12655;DHT22;6392;44.644;11.448;2023-02-01T15:44:19;12.50;99.90
12655;DHT22;6392;44.644;11.448;2023-02-01T15:46:48;12.40;99.90
12655;DHT22;6392;44.644;11.448;2023-02-01T15:49:20;12.40;99.90
12655;DHT22;6392;44.644;11.448;2023-02-01T15:51:48;12.30;99.90
12655;DHT22;6392;44.644;11.448;2023-02-01T15:54:18;12.20;99.90
12655;DHT22;6392;44.644;11.448;2023-02-01T15:56:51;12.10;99.90
12655;DHT22;6392;44.644;11.448;2023-02-01T15:59:21;12.00;99.90
12655;DHT22;6392;44.644;11.448;2023-02-01T16:01:49;11.90;99.90
12655;DHT22;6392;44.644;11.448;2023-02-01T16:04:20;11.90;99.90
12655;DHT22;6392;44.644;11.448;2023-02-01T16:06:50;11.80;99.90
12655;DHT22;6392;44.644;11.448;2023-02-01T16:09:19;11.80;99.90
12655;DHT22;6392;44.644;11.448;2023-02-01T16:11:55;11.70;99.90
12655;DHT22;6392;44.644;11.448;2023-02-01T16:14:24;11.70;99.90
12655;DHT22;6392;44.644;11.448;2023-02-01T16:16:52;11.60;99.90
12655;DHT22;6392;44.644;11.448;2023-02-01T16:19:20;11.50;99.90
12655;DHT22;6392;44.644;11.448;2023-02-01T16:21:49;11.40;99.90
12655;DHT22;6392;44.644;11.448;2023-02-01T16:24:17;11.20;99.90
12655;DHT22;6392;44.644;11.448;2023-02-01T16:26:44;11.20;99.90
12655;DHT22;6392;44.644;11.448;2023-02-01T16:29:12;11.10;99.90
12655;DHT22;6392;44.644;11.448;2023-02-01T16:31:41;11.00;99.90